Time;durP1;ratioP1;P1;durP2;ratioP2;P2;SDS_P1;SDS_P2;PMS_P1;PMS_P2;Temp;Humidity;BMP_temperature;BMP_pressure;BME280_temperature;BME280_humidity;BME280_pressure;Samples;Min_cycle;Max_cycle;Signal;HPM_P1;HPM_P2
2023/01/27 00:00:54;443217.00;1.48;764.12;0.00;0.00;0.62;;;;;2.40;1.00;;;;;;2260452;61;944;-88
2023/01/27 00:03:21;392464.00;1.31;676.85;0.00;0.00;0.62;;;;;2.40;1.00;;;;;;2260336;61;1735;-88
2023/01/27 00:05:51;291027.00;0.97;502.49;0.00;0.00;0.62;;;;;2.70;1.00;;;;;;2260404;61;1625;-88
2023/01/27 00:08:18;331796.00;1.11;572.57;0.00;0.00;0.62;;;;;2.60;1.00;;;;;;2260324;61;956;-87
2023/01/27 00:10:45;447377.00;1.49;771.27;0.00;0.00;0.62;;;;;2.40;1.00;;;;;;2260303;61;890;-88
2023/01/27 00:13:30;512289.00;1.71;882.98;0.00;0.00;0.62;;;;;2.20;1.00;;;;;;2260179;61;2071;-88
2023/01/27 00:15:57;534343.00;1.78;920.97;0.00;0.00;0.62;;;;;2.10;1.00;;;;;;2260408;61;1230;-87
2023/01/27 00:18:24;499870.00;1.67;861.60;0.00;0.00;0.62;;;;;2.00;1.00;;;;;;2260376;61;1110;-88
2023/01/27 00:26:21;259369.00;0.86;448.06;0.00;0.00;0.62;;;;;2.40;1.00;;;;;;2260409;61;638;-88
2023/01/27 00:28:48;347201.00;1.16;599.05;0.00;0.00;0.62;;;;;2.40;1.00;;;;;;2260279;61;1187;-87
2023/01/27 00:34:07;335481.00;1.12;578.91;0.00;0.00;0.62;;;;;2.10;1.00;;;;;;2260391;61;1343;-88
2023/01/27 00:36:37;379858.00;1.27;655.18;22772.00;0.08;40.07;;;;;2.00;1.00;;;;;;2260413;61;1090;-88
2023/01/27 00:39:04;516493.00;1.72;890.22;0.00;0.00;0.62;;;;;2.60;1.00;;;;;;2267412;56;3740;-88
2023/01/27 00:41:32;254558.00;0.85;439.79;0.00;0.00;0.62;;;;;2.90;1.00;;;;;;2260299;61;1020;-87
2023/01/27 00:44:00;118403216.00;394.68;67240200.00;1838.00;0.01;3.81;;;;;3.20;1.00;;;;;;2260247;61;1608;-87
2023/01/27 00:49:03;539105.00;1.80;929.18;0.00;0.00;0.62;;;;;2.90;1.00;;;;;;1632651;60;2823;-88
2023/01/27 00:51:30;397273.00;1.32;685.12;0.00;0.00;0.62;;;;;2.90;1.00;;;;;;2260058;61;2005;-89
2023/01/27 00:53:58;501173.00;1.67;863.84;0.00;0.00;0.62;;;;;2.80;1.00;;;;;;2260242;61;1348;-86
2023/01/27 00:56:26;243393.00;0.81;420.59;0.00;0.00;0.62;;;;;3.10;1.00;;;;;;2260232;61;1059;-87
2023/01/27 00:58:53;444815.00;1.48;766.86;0.00;0.00;0.62;;;;;3.20;1.00;;;;;;2260175;61;1609;-89
2023/01/27 01:01:20;489293.00;1.63;843.39;0.00;0.00;0.62;;;;;2.90;1.00;;;;;;2260266;61;917;-88
2023/01/27 01:03:47;301012.00;1.00;519.66;0.00;0.00;0.62;;;;;3.00;1.00;;;;;;2267176;40;3580;-86
2023/01/27 01:06:19;363893.00;1.21;627.74;0.00;0.00;0.62;;;;;3.00;1.00;;;;;;2260352;61;980;-89
2023/01/27 01:08:47;421037.00;1.40;725.97;49059.00;0.16;85.56;;;;;3.10;1.00;;;;;;2260206;61;1585;-87
2023/01/27 01:11:17;422086.00;1.41;727.78;0.00;0.00;0.62;;;;;3.00;1.00;;;;;;2260072;61;1484;-88
2023/01/27 01:13:45;459872.00;1.53;792.76;0.00;0.00;0.62;;;;;2.60;1.00;;;;;;2260068;61;2010;-89
2023/01/27 01:16:14;429128.00;1.43;739.89;0.00;0.00;0.62;;;;;2.80;1.00;;;;;;2260199;61;1086;-88
2023/01/27 01:18:41;445811.00;1.49;768.58;23589.00;0.08;41.48;;;;;3.10;1.00;;;;;;2260178;61;1483;-88
2023/01/27 01:21:09;341828.00;1.14;589.82;0.00;0.00;0.62;;;;;2.60;1.00;;;;;;2260221;61;2229;-88
2023/01/27 01:23:39;425364.00;1.42;733.41;0.00;0.00;0.62;;;;;2.00;1.00;;;;;;2260066;61;1447;-90
2023/01/27 01:26:06;387160.00;1.29;667.73;0.00;0.00;0.62;;;;;2.40;1.00;;;;;;2260182;61;1029;-89
2023/01/27 01:28:35;569462.00;1.90;981.52;54869.00;0.18;95.61;;;;;2.30;1.00;;;;;;2260126;61;1573;-87
2023/01/27 01:31:06;601159.00;2.00;1036.22;0.00;0.00;0.62;;;;;2.50;1.00;;;;;;2260132;61;990;-87
2023/01/27 01:33:33;488177.00;1.63;841.47;18172.00;0.06;32.10;;;;;2.60;1.00;;;;;;2260116;61;1985;-88
2023/01/27 01:36:05;470980.00;1.57;811.88;0.00;0.00;0.62;;;;;2.30;1.00;;;;;;2260026;61;2331;-86
2023/01/27 01:38:32;424181.00;1.41;731.38;0.00;0.00;0.62;;;;;2.30;1.00;;;;;;2260090;61;1657;-88
2023/01/27 01:40:59;455945.00;1.52;786.01;0.00;0.00;0.62;;;;;2.30;1.00;;;;;;2260178;61;1573;-87
2023/01/27 01:43:26;336662.00;1.12;580.94;0.00;0.00;0.62;;;;;2.60;1.00;;;;;;2260089;61;1571;-86
2023/01/27 01:45:56;417226.00;1.39;719.42;0.00;0.00;0.62;;;;;2.50;1.00;;;;;;2260101;61;922;-87
2023/01/27 01:48:32;396945.00;1.32;684.55;0.00;0.00;0.62;;;;;2.60;1.00;;;;;;2260056;61;1586;-87
2023/01/27 01:51:07;358211.00;1.19;617.97;0.00;0.00;0.62;;;;;2.60;1.00;;;;;;2260250;61;1017;-88
2023/01/27 01:53:40;357953.00;1.19;617.53;0.00;0.00;0.62;;;;;2.40;1.00;;;;;;2260177;61;1911;-87
2023/01/27 01:56:12;436692.00;1.46;752.89;0.00;0.00;0.62;;;;;2.40;1.00;;;;;;2260172;61;1111;-88
2023/01/27 01:58:40;299336.00;1.00;516.78;0.00;0.00;0.62;;;;;2.60;1.00;;;;;;2260177;61;2262;-88
2023/01/27 02:01:09;304509.00;1.02;525.67;0.00;0.00;0.62;;;;;2.70;1.00;;;;;;2260172;61;1195;-87
2023/01/27 02:03:40;520329.00;1.73;896.83;0.00;0.00;0.62;;;;;2.50;1.00;;;;;;2260541;61;1337;-86
2023/01/27 02:06:07;522403.00;1.74;900.40;27445.00;0.09;48.16;;;;;2.40;1.00;;;;;;2260900;61;1022;-89
2023/01/27 02:08:40;474604.00;1.58;818.11;21972.00;0.07;38.68;;;;;2.30;1.00;;;;;;2260741;61;999;-89
2023/01/27 02:11:07;460608.00;1.54;794.03;0.00;0.00;0.62;;;;;2.50;1.00;;;;;;2260742;61;1940;-88
2023/01/27 02:13:34;462313.00;1.54;796.96;0.00;0.00;0.62;;;;;2.90;1.00;;;;;;2260694;61;1989;-87
2023/01/27 02:16:01;541011.00;1.80;932.47;119750.00;0.40;207.65;;;;;3.10;1.00;;;;;;2260765;61;927;-88
2023/01/27 02:18:30;380139.00;1.27;655.66;0.00;0.00;0.62;;;;;2.80;1.00;;;;;;2260745;61;1455;-86
2023/01/27 02:20:57;357049.00;1.19;615.98;0.00;0.00;0.62;;;;;2.30;1.00;;;;;;2260706;61;1346;-89
2023/01/27 02:23:53;431893.00;1.44;744.64;0.00;0.00;0.62;;;;;1.90;1.00;;;;;;2260798;61;1272;-88
2023/01/27 02:26:26;333608.00;1.11;575.69;0.00;0.00;0.62;;;;;2.00;1.00;;;;;;2260836;61;998;-86
2023/01/27 02:28:56;360347.00;1.20;621.65;0.00;0.00;0.62;;;;;2.00;1.00;;;;;;2260825;61;1074;-87
2023/01/27 02:31:23;423818.00;1.41;730.76;0.00;0.00;0.62;;;;;2.00;1.00;;;;;;2260753;61;1671;-87
2023/01/27 02:33:52;545515.00;1.82;940.23;14588.00;0.05;25.90;;;;;2.20;1.00;;;;;;2260635;61;2009;-88
2023/01/27 02:36:19;292329.00;0.97;504.73;0.00;0.00;0.62;;;;;2.80;1.00;;;;;;2260748;61;1448;-87
2023/01/27 02:38:49;343948.00;1.15;593.46;0.00;0.00;0.62;;;;;3.10;1.00;;;;;;2260759;61;1617;-87
2023/01/27 02:41:21;360564.00;1.20;622.02;0.00;0.00;0.62;;;;;3.10;1.00;;;;;;2260787;61;1051;-88
2023/01/27 02:43:50;295815.00;0.99;510.73;0.00;0.00;0.62;;;;;3.00;1.00;;;;;;2260741;61;1480;-87
2023/01/27 02:46:18;256826.00;0.86;443.69;0.00;0.00;0.62;;;;;2.90;1.00;;;;;;2260659;61;1734;-88
2023/01/27 02:48:45;409173.00;1.36;705.58;40162.00;0.13;70.17;;;;;2.90;1.00;;;;;;2260752;61;931;-88
2023/01/27 02:51:12;250112.00;0.83;432.14;0.00;0.00;0.62;;;;;3.00;1.00;;;;;;2260653;61;1609;-87
2023/01/27 02:53:39;412862.00;1.38;711.92;15152.00;0.05;26.87;;;;;2.70;1.00;;;;;;2260692;61;1987;-88
2023/01/27 02:56:07;295348.00;0.98;509.92;0.00;0.00;0.62;;;;;2.50;1.00;;;;;;2260684;61;1024;-88
2023/01/27 02:58:34;173078.00;0.58;299.57;0.00;0.00;0.62;;;;;2.20;1.00;;;;;;2260695;61;1154;-87
2023/01/27 03:01:02;417485.00;1.39;719.87;0.00;0.00;0.62;;;;;2.00;1.00;;;;;;2260660;61;1476;-87
2023/01/27 03:03:29;259508.00;0.87;448.30;0.00;0.00;0.62;;;;;2.00;1.00;;;;;;2260565;61;1426;-88
2023/01/27 03:05:56;260865.00;0.87;450.64;0.00;0.00;0.62;;;;;2.20;1.00;;;;;;2260670;61;1664;-87
2023/01/27 03:08:23;231045.00;0.77;399.35;0.00;0.00;0.62;;;;;2.40;1.00;;;;;;2260691;61;1569;-86
2023/01/27 03:10:51;294236.00;0.98;508.01;0.00;0.00;0.62;;;;;2.50;1.00;;;;;;2260636;61;1080;-88
2023/01/27 03:13:21;396169.00;1.32;683.22;42235.00;0.14;73.76;;;;;2.50;1.00;;;;;;2260436;61;1929;-88
2023/01/27 03:18:35;281286.00;0.94;485.75;0.00;0.00;0.62;;;;;3.10;1.00;;;;;;2260655;61;687;-89
2023/01/27 03:21:05;422184.00;1.41;727.95;36074.00;0.12;63.10;;;;;3.00;1.00;;;;;;2260682;61;1040;-89
2023/01/27 03:23:33;127386.00;0.42;220.82;0.00;0.00;0.62;;;;;3.20;1.00;;;;;;2260600;61;1266;-88
2023/01/27 03:26:01;263509.00;0.88;455.18;0.00;0.00;0.62;;;;;2.80;1.00;;;;;;2260591;61;908;-89
2023/01/27 03:28:28;261817.00;0.87;452.27;0.00;0.00;0.62;;;;;2.90;1.00;;;;;;2260551;61;1092;-88
2023/01/27 03:30:59;286280.00;0.95;494.33;0.00;0.00;0.62;;;;;2.80;1.00;;;;;;2260603;61;893;-89
2023/01/27 03:33:26;217510.00;0.73;376.06;0.00;0.00;0.62;;;;;2.20;1.00;;;;;;2260483;61;1924;-88
2023/01/27 03:46:52;425564.00;1.42;733.76;0.00;0.00;0.62;;;;;2.30;1.00;;;;;;2260485;61;647;-88
2023/01/27 03:49:19;332982.00;1.11;574.61;0.00;0.00;0.62;;;;;2.50;1.00;;;;;;2260573;61;1110;-86
2023/01/27 03:51:47;342087.00;1.14;590.26;0.00;0.00;0.62;;;;;2.80;1.00;;;;;;2260516;61;960;-86
2023/01/27 03:54:14;396715.00;1.32;684.16;20939.00;0.07;36.90;;;;;2.70;1.00;;;;;;2260446;61;1919;-87
2023/01/27 03:56:41;412301.00;1.37;710.95;0.00;0.00;0.62;;;;;2.90;1.00;;;;;;2260466;61;1711;-86
2023/01/27 03:59:08;283519.00;0.95;489.59;0.00;0.00;0.62;;;;;2.90;1.00;;;;;;2260387;61;1597;-87
2023/01/27 04:01:35;288029.00;0.96;497.34;0.00;0.00;0.62;;;;;2.50;1.00;;;;;;2260540;61;1030;-86
2023/01/27 04:06:57;469328.00;1.56;809.03;0.00;0.00;0.62;;;;;2.20;1.00;;;;;;2260525;61;755;-87
2023/01/27 04:09:27;221784.00;0.74;383.41;0.00;0.00;0.62;;;;;2.30;1.00;;;;;;2260493;61;1067;-87
2023/01/27 04:11:54;380219.00;1.27;655.80;0.00;0.00;0.62;;;;;2.70;1.00;;;;;;2260362;61;1189;-88
2023/01/27 04:14:22;603939.00;2.01;1041.02;21311.00;0.07;37.54;;;;;2.60;1.00;;;;;;2260399;61;2013;-87
2023/01/27 04:16:51;669508.00;2.23;1154.40;0.00;0.00;0.62;;;;;2.30;1.00;;;;;;2260442;61;1424;-87
2023/01/27 04:19:19;604315.00;2.01;1041.67;0.00;0.00;0.62;;;;;2.00;1.00;;;;;;2260457;61;1021;-88
2023/01/27 04:21:48;466974.00;1.56;804.98;0.00;0.00;0.62;;;;;1.80;1.00;;;;;;2260320;61;1759;-87
2023/01/27 04:24:23;642313.00;2.14;1107.34;0.00;0.00;0.62;;;;;1.70;1.00;;;;;;2260285;61;1375;-87
2023/01/27 04:26:53;448237.00;1.49;772.75;0.00;0.00;0.62;;;;;2.00;1.00;;;;;;2260183;61;1258;-87
2023/01/27 04:29:21;583883.00;1.95;1006.40;0.00;0.00;0.62;;;;;2.20;1.00;;;;;;2262806;40;3582;-87
2023/01/27 04:31:48;378665.00;1.26;653.13;0.00;0.00;0.62;;;;;2.30;1.00;;;;;;2260425;61;890;-87
2023/01/27 04:34:15;259161.00;0.86;447.71;0.00;0.00;0.62;;;;;2.60;1.00;;;;;;2260305;61;2010;-87
2023/01/27 04:36:42;289495.00;0.96;499.86;0.00;0.00;0.62;;;;;2.40;1.00;;;;;;2260333;61;1031;-88
2023/01/27 04:39:11;597816.00;1.99;1030.45;24328.00;0.08;42.76;;;;;2.60;1.00;;;;;;2260365;61;1081;-87
2023/01/27 04:41:38;237573.00;0.79;410.58;0.00;0.00;0.62;;;;;2.50;1.00;;;;;;2260302;61;1553;-89
2023/01/27 04:44:06;566965.00;1.89;977.21;18126.00;0.06;32.02;;;;;2.40;1.00;;;;;;2260270;61;1382;-89
2023/01/27 04:46:33;249025.00;0.83;430.27;0.00;0.00;0.62;;;;;2.70;1.00;;;;;;2260336;61;1610;-88
2023/01/27 04:49:01;581661.00;1.94;1002.56;23756.00;0.08;41.77;;;;;3.00;1.00;;;;;;2260452;61;1022;-87
2023/01/27 04:51:28;549163.00;1.83;946.52;0.00;0.00;0.62;;;;;2.50;1.00;;;;;;2260321;61;1748;-87
2023/01/27 04:53:55;117863992.00;392.88;66324896.00;7497.00;0.02;13.61;;;;;1.70;1.00;;;;;;2260205;61;2017;-88
2023/01/27 04:56:26;585542.00;1.95;1009.26;0.00;0.00;0.62;;;;;1.60;1.00;;;;;;2260225;61;1623;-88
2023/01/27 04:58:54;454155.00;1.51;782.93;0.00;0.00;0.62;;;;;2.10;1.00;;;;;;2260308;61;954;-86
2023/01/27 05:01:21;522823.00;1.74;901.13;0.00;0.00;0.62;;;;;2.60;1.00;;;;;;2260256;61;1310;-88
2023/01/27 05:03:48;545231.00;1.82;939.74;20717.00;0.07;36.51;;;;;2.70;1.00;;;;;;2260283;61;1417;-89
2023/01/27 05:06:16;386069.00;1.29;665.86;0.00;0.00;0.62;;;;;2.70;1.00;;;;;;2260293;61;1105;-88
2023/01/27 05:08:43;561725.00;1.87;968.18;0.00;0.00;0.62;;;;;2.40;1.00;;;;;;2260288;61;1023;-87
2023/01/27 05:11:11;465558.00;1.55;802.55;39288.00;0.13;68.66;;;;;2.10;1.00;;;;;;2260270;61;1115;-87
2023/01/27 05:13:40;301398.00;1.00;520.32;0.00;0.00;0.62;;;;;1.80;1.00;;;;;;2260274;61;1916;-88
2023/01/27 05:16:11;337987.00;1.13;583.21;0.00;0.00;0.62;;;;;1.70;1.00;;;;;;2260251;61;1434;-89
2023/01/27 05:18:39;464515.00;1.55;800.75;0.00;0.00;0.62;;;;;1.90;1.00;;;;;;2260249;61;2257;-87
2023/01/27 05:21:08;603276.00;2.01;1039.88;25430.00;0.08;44.67;;;;;2.20;1.00;;;;;;2260333;61;1030;-87
2023/01/27 05:23:35;448359.00;1.49;772.96;0.00;0.00;0.62;;;;;2.10;1.00;;;;;;2260166;61;1668;-89
2023/01/27 05:26:07;657430.00;2.19;1133.49;0.00;0.00;0.62;;;;;2.00;1.00;;;;;;2260312;61;1070;-87
2023/01/27 05:28:34;506270.00;1.69;872.62;0.00;0.00;0.62;;;;;1.80;1.00;;;;;;2260169;61;1589;-87
2023/01/27 05:31:06;821897.00;2.74;1419.34;0.00;0.00;0.62;;;;;1.80;1.00;;;;;;2260189;61;1060;-87
2023/01/27 05:36:12;846280.00;2.82;1461.96;58805.00;0.20;102.41;;;;;1.60;1.00;;;;;;2262087;61;1317;-88
2023/01/27 05:38:40;347241.00;1.16;599.12;0.00;0.00;0.62;;;;;1.50;1.00;;;;;;2260966;61;1016;-86
2023/01/27 05:41:08;484569.00;1.62;835.26;0.00;0.00;0.62;;;;;1.50;1.00;;;;;;2260822;61;1405;-87
2023/01/27 05:43:37;549901.00;1.83;947.79;0.00;0.00;0.62;;;;;1.40;1.00;;;;;;2260844;61;1287;-87
2023/01/27 05:46:08;409661.00;1.37;706.41;0.00;0.00;0.62;;;;;1.50;1.00;;;;;;2260791;61;1042;-87
2023/01/27 05:48:37;445250.00;1.48;767.61;0.00;0.00;0.62;;;;;1.80;1.00;;;;;;2260855;61;1004;-88
2023/01/27 05:51:05;397274.00;1.32;685.12;0.00;0.00;0.62;;;;;2.00;1.00;;;;;;2260883;61;981;-88
2023/01/27 05:53:32;297569.00;0.99;513.74;0.00;0.00;0.62;;;;;1.60;1.00;;;;;;2260789;61;2000;-86
2023/01/27 05:55:59;511609.00;1.71;881.81;0.00;0.00;0.62;;;;;1.10;1.00;;;;;;2260770;61;958;-87
2023/01/27 05:58:27;365161.00;1.22;629.92;0.00;0.00;0.62;;;;;1.20;1.00;;;;;;2260734;61;922;-86
2023/01/27 06:03:31;595014.00;1.98;1025.61;14223.00;0.05;25.26;;;;;1.60;1.00;;;;;;650367;60;2456;-88
2023/01/27 06:05:58;483383.00;1.61;833.22;0.00;0.00;0.62;;;;;1.50;1.00;;;;;;2260611;61;1090;-88
2023/01/27 06:08:26;478632.00;1.60;825.04;0.00;0.00;0.62;;;;;1.60;1.00;;;;;;2260554;61;1718;-88
2023/01/27 06:10:54;579622.00;1.93;999.05;0.00;0.00;0.62;;;;;1.80;1.00;;;;;;2260624;61;1261;-88
2023/01/27 06:13:23;530828.00;1.77;914.92;0.00;0.00;0.62;;;;;1.70;1.00;;;;;;2260490;61;1910;-88
2023/01/27 06:15:52;465738.00;1.55;802.86;0.00;0.00;0.62;;;;;1.70;1.00;;;;;;2260611;61;1003;-87
2023/01/27 06:18:19;475183.00;1.58;819.11;0.00;0.00;0.62;;;;;1.40;1.00;;;;;;2260780;61;1552;-88
2023/01/27 06:20:48;416829.00;1.39;718.74;0.00;0.00;0.62;;;;;1.10;1.00;;;;;;2260350;61;1620;-88
2023/01/27 06:25:49;526674.00;1.76;907.76;0.00;0.00;0.62;;;;;1.40;1.00;;;;;;2262391;61;1413;-88
2023/01/27 06:28:17;724900.00;2.42;1250.45;0.00;0.00;0.62;;;;;1.50;1.00;;;;;;2272048;56;3752;-88
2023/01/27 06:30:44;470713.00;1.57;811.42;0.00;0.00;0.62;;;;;2.00;1.00;;;;;;2260530;61;1692;-89
2023/01/27 06:33:11;679287.00;2.26;1171.34;28634.00;0.10;50.22;;;;;2.30;1.00;;;;;;2260560;61;1922;-89
2023/01/27 06:35:39;636822.00;2.12;1097.84;21953.00;0.07;38.65;;;;;2.60;1.00;;;;;;2260542;61;1319;-88
2023/01/27 06:40:42;1136492.00;3.79;1975.81;0.00;0.00;0.62;;;;;2.60;1.00;;;;;;1936206;41;1234560;-89
2023/01/27 06:45:37;1073032.00;3.58;1862.26;0.00;0.00;0.62;;;;;2.00;1.00;;;;;;2261803;61;1420;-88
2023/01/27 06:48:07;549104.00;1.83;946.41;0.00;0.00;0.62;;;;;2.30;1.00;;;;;;2267744;56;3761;-88
2023/01/27 06:53:10;403658.00;1.35;696.09;0.00;0.00;0.62;;;;;2.80;1.00;;;;;;2260458;57;1724;-88
2023/01/27 06:55:40;718457.00;2.39;1239.26;0.00;0.00;0.62;;;;;2.50;1.00;;;;;;2260490;61;2009;-88
2023/01/27 07:00:38;798213.00;2.66;1378.01;0.00;0.00;0.62;;;;;1.70;1.00;;;;;;2274504;56;3677;-87
2023/01/27 07:05:34;1355805.00;4.52;2374.60;0.00;0.00;0.62;;;;;1.50;1.00;;;;;;2262122;61;1406;-88
2023/01/27 07:08:01;553382.00;1.84;953.79;0.00;0.00;0.62;;;;;1.60;1.00;;;;;;2260451;61;1102;-89
2023/01/27 07:13:05;869884.00;2.90;1503.29;0.00;0.00;0.62;;;;;1.40;1.00;;;;;;2303744;41;3431;-88
2023/01/27 07:18:07;874184.00;2.91;1510.82;0.00;0.00;0.62;;;;;1.90;1.00;;;;;;2262252;61;1414;-87
2023/01/27 07:25:36;830615.00;2.77;1434.57;0.00;0.00;0.62;;;;;1.90;1.00;;;;;;2262856;61;1338;-88
2023/01/27 07:30:34;943770.00;3.15;1633.13;0.00;0.00;0.62;;;;;1.50;1.00;;;;;;2273399;40;3512;-91
2023/01/27 07:33:07;372175.00;1.24;641.98;0.00;0.00;0.62;;;;;1.60;1.00;;;;;;2261005;61;1296;-88
2023/01/27 07:35:35;526383.00;1.75;907.26;0.00;0.00;0.62;;;;;1.70;1.00;;;;;;2267621;56;3734;-86
2023/01/27 07:53:18;633001.00;2.11;1091.24;0.00;0.00;0.62;;;;;2.10;1.00;;;;;;1057052;40;3398;-87
2023/01/27 08:00:51;1136547.00;3.79;1975.91;0.00;0.00;0.62;;;;;1.40;1.40;;;;;;2296874;56;3695;-89
2023/01/27 08:23:36;1603884.00;5.35;2840.16;18763.00;0.06;33.13;;;;;2.20;1.00;;;;;;2353234;40;3626;-89
2023/01/27 09:20:48;763542.00;2.55;1317.61;96124.00;0.32;166.88;;;;;1.60;1.00;;;;;;794164;41;3108;-87
2023/01/27 09:23:20;1080211.00;3.60;1875.07;0.00;0.00;0.62;;;;;1.80;1.00;;;;;;836313;56;3706;-87
2023/01/27 09:36:04;1131108.00;3.77;1966.15;20947.00;0.07;36.91;;;;;2.40;1.00;;;;;;2261797;61;1975;-90
2023/01/27 09:41:39;962299.00;3.21;1665.81;0.00;0.00;0.62;;;;;1.90;1.00;;;;;;2262490;61;1315;-90
2023/01/27 09:54:44;1350599.00;4.50;2365.01;10326.00;0.03;18.51;;;;;2.10;1.00;;;;;;2261489;61;1983;-88
2023/01/27 10:00:06;1198088.00;3.99;2086.76;0.00;0.00;0.62;;;;;2.10;1.00;;;;;;2263520;56;1671;-87
2023/01/27 10:08:16;867745.00;2.89;1499.54;0.00;0.00;0.62;;;;;1.90;1.00;;;;;;2262543;61;1014;-89
2023/01/27 10:10:53;1155719.00;3.85;2010.36;51378.00;0.17;89.57;;;;;2.00;1.00;;;;;;2262554;61;450;-89
2023/01/27 10:13:33;1291654.00;4.31;2256.84;33409.00;0.11;58.48;;;;;2.20;1.00;;;;;;2260653;61;1642;-89
2023/01/27 10:16:25;1168367.00;3.89;2033.13;9138.00;0.03;16.46;;;;;2.10;1.00;;;;;;2260683;61;1924;-90
2023/01/27 10:19:09;1137389.00;3.79;1977.42;7200.00;0.02;13.10;;;;;1.80;1.00;;;;;;2259880;61;1583;-87
2023/01/27 10:24:21;1398182.00;4.66;2452.95;104118.00;0.35;180.68;;;;;1.90;1.00;;;;;;2281819;56;3589;-88
2023/01/27 10:26:51;1224749.00;4.08;2135.03;99454.00;0.33;172.63;;;;;2.10;1.00;;;;;;2260523;61;1566;-87
2023/01/27 10:29:24;917187.00;3.06;1586.33;95818.00;0.32;166.35;;;;;1.80;1.00;;;;;;2260752;61;1610;-88
2023/01/27 10:31:58;1092772.00;3.64;1897.50;94110.00;0.31;163.40;;;;;1.70;1.00;;;;;;2260469;61;1519;-86
2023/01/27 10:37:12;1137795.00;3.79;1978.15;101390.00;0.34;175.97;;;;;1.90;1.00;;;;;;2268006;55;3675;-88
2023/01/27 10:39:48;1140377.00;3.80;1982.78;102053.00;0.34;177.12;;;;;1.50;1.00;;;;;;2260482;61;741;-89
2023/01/27 10:42:28;1210186.00;4.03;2108.65;103980.00;0.35;180.44;;;;;1.50;1.00;;;;;;2260519;61;1329;-90
2023/01/27 10:50:09;1681487.00;5.60;2989.51;85139.00;0.28;147.91;;;;;1.60;1.00;;;;;;2262006;61;1288;-86
2023/01/27 10:52:41;809924.00;2.70;1398.44;108950.00;0.36;189.02;;;;;1.20;1.00;;;;;;2260470;61;1748;-88
2023/01/27 10:55:18;823307.00;2.74;1421.80;100423.00;0.33;174.30;;;;;1.00;1.00;;;;;;2272693;41;3618;-88
2023/01/27 11:00:28;1522175.00;5.07;2684.92;103655.00;0.35;179.88;;;;;1.40;1.00;;;;;;1949204;41;3444;-91
2023/01/27 11:05:32;1108222.00;3.69;1925.13;104111.00;0.35;180.67;;;;;1.40;1.00;;;;;;2259252;61;1278;-90
2023/01/27 11:20:46;887202.00;2.96;1533.65;0.00;0.00;0.62;;;;;2.10;1.00;;;;;;2262472;61;1215;-88
2023/01/27 11:23:18;388857.00;1.30;670.65;0.00;0.00;0.62;;;;;2.50;1.00;;;;;;2261107;61;1332;-90
2023/01/27 11:25:54;661446.00;2.20;1140.44;0.00;0.00;0.62;;;;;2.10;1.00;;;;;;2260478;61;2076;-88
2023/01/27 12:47:59;1226626.00;4.09;2138.43;102830.00;0.34;178.46;;;;;2.10;1.00;;;;;;2262356;61;999;-87
2023/01/27 13:46:29;1189174.00;3.96;2070.66;95832.00;0.32;166.38;;;;;3.10;1.00;;;;;;2277422;56;3628;-86
2023/01/27 13:56:50;1164289.00;3.88;2025.79;97390.00;0.32;169.07;;;;;3.60;1.00;;;;;;2277237;41;3442;-88
2023/01/27 14:04:48;1222459.00;4.07;2130.88;137502.00;0.46;238.26;;;;;3.10;1.00;;;;;;2262750;61;1345;-90
2023/01/27 14:17:32;1288005.00;4.29;2250.17;0.00;0.00;0.62;;;;;3.10;1.00;;;;;;2262325;61;1160;-89
2023/01/27 14:35:28;1075591.00;3.59;1866.83;0.00;0.00;0.62;;;;;2.60;1.00;;;;;;1787224;41;3607;-87
2023/01/27 14:38:08;703962.00;2.35;1214.11;0.00;0.00;0.62;;;;;2.60;1.00;;;;;;2291008;56;3705;-88
2023/01/27 14:40:46;477767.00;1.59;823.55;0.00;0.00;0.62;;;;;2.70;1.00;;;;;;2325770;56;3718;-90
2023/01/27 14:45:49;1252181.00;4.17;2184.85;0.00;0.00;0.62;;;;;2.80;1.00;;;;;;2269013;56;3706;-89
2023/01/27 14:48:42;716906.00;2.39;1236.57;0.00;0.00;0.62;;;;;3.00;1.00;;;;;;2266029;40;3617;-87
2023/01/27 14:56:27;1230905.00;4.10;2146.20;0.00;0.00;0.62;;;;;2.20;1.00;;;;;;2269868;41;3549;-87
2023/01/27 15:04:25;1039457.00;3.46;1802.48;0.00;0.00;0.62;;;;;2.00;1.00;;;;;;2305497;41;3445;-89
2023/01/27 15:12:12;810271.00;2.70;1399.04;0.00;0.00;0.62;;;;;2.10;1.00;;;;;;2262455;61;1227;-87
2023/01/27 15:17:28;1838687.00;6.13;3298.19;37774.00;0.13;66.04;;;;;1.90;1.00;;;;;;2277164;56;3578;-88
2023/01/27 15:25:16;1559500.00;5.20;2755.59;126879.00;0.42;219.95;;;;;2.10;1.00;;;;;;2258283;61;1307;-88
2023/01/27 15:30:25;2013946.00;6.71;3653.00;69274.00;0.23;120.51;;;;;2.40;1.00;;;;;;2262077;61;1411;-86
2023/01/27 15:32:52;1076285.00;3.59;1868.06;0.00;0.00;0.62;;;;;2.20;1.00;;;;;;2289372;41;3613;-89
2023/01/27 15:35:37;1088539.00;3.63;1889.94;95437.00;0.32;165.69;;;;;2.30;1.00;;;;;;2294646;56;3761;-88
2023/01/27 15:41:06;1076224.00;3.59;1867.96;140399.00;0.47;243.26;;;;;2.30;1.00;;;;;;1377174;40;3364;-88
2023/01/27 15:43:38;1426371.00;4.75;2505.32;112004.00;0.37;194.29;;;;;2.40;1.00;;;;;;2267622;56;3765;-86
2023/01/27 15:46:34;1286749.00;4.29;2247.87;0.00;0.00;0.62;;;;;2.10;1.00;;;;;;2306845;56;3726;-88
2023/01/27 15:51:37;1700620.00;5.67;3026.63;45687.00;0.15;79.73;;;;;2.10;1.00;;;;;;2262498;61;1355;-89
2023/01/27 15:54:06;951091.00;3.17;1646.04;43647.00;0.15;76.20;;;;;2.20;1.00;;;;;;2260380;61;1681;-89
2023/01/27 15:56:42;1151924.00;3.84;2003.54;62651.00;0.21;109.06;;;;;1.90;1.00;;;;;;2260358;61;1936;-88
2023/01/27 15:59:16;1233664.00;4.11;2151.20;25912.00;0.09;45.51;;;;;1.90;1.00;;;;;;2260421;61;1066;-88
2023/01/27 16:01:47;1249077.00;4.16;2179.21;21606.00;0.07;38.05;;;;;2.00;1.00;;;;;;2260351;61;1522;-87
2023/01/27 16:04:22;1374048.00;4.58;2408.28;0.00;0.00;0.62;;;;;2.00;1.00;;;;;;2267474;56;3742;-88
2023/01/27 16:06:53;126378688.00;421.26;81778528.00;33606.00;0.11;58.82;;;;;2.10;1.00;;;;;;2260371;61;1258;-88
2023/01/27 16:09:32;1247465.00;4.16;2176.28;0.00;0.00;0.62;;;;;1.90;1.00;;;;;;2260278;61;1580;-88
2023/01/27 16:14:39;1028010.00;3.43;1782.14;0.00;0.00;0.62;;;;;1.70;1.00;;;;;;2261974;61;1384;-88
2023/01/27 16:17:26;1048518.00;3.50;1818.60;74894.00;0.25;130.22;;;;;2.20;1.00;;;;;;2260335;61;1940;-88
2023/01/27 16:20:03;1057882.00;3.53;1835.26;118547.00;0.40;205.58;;;;;2.30;1.00;;;;;;2267614;56;3695;-88
2023/01/27 16:22:35;698330.00;2.33;1204.34;71964.00;0.24;125.15;;;;;2.10;1.00;;;;;;2275370;41;3621;-88
2023/01/27 16:25:19;546296.00;1.82;941.57;94463.00;0.31;164.01;;;;;2.30;1.00;;;;;;2256368;61;1432;-89
2023/01/27 16:27:53;677828.00;2.26;1168.81;111731.00;0.37;193.82;;;;;2.20;1.00;;;;;;2256417;61;1129;-88
2023/01/27 16:30:24;125198032.00;417.33;79505744.00;0.00;0.00;0.62;;;;;1.80;1.00;;;;;;2256283;61;1651;-87
2023/01/27 16:33:07;687056.00;2.29;1184.80;0.00;0.00;0.62;;;;;1.80;1.00;;;;;;2256217;61;1310;-89
2023/01/27 16:35:43;469737.00;1.57;809.74;0.00;0.00;0.62;;;;;2.10;1.00;;;;;;2256236;61;1991;-87
2023/01/27 16:38:24;785409.00;2.62;1355.69;104003.00;0.35;180.48;;;;;2.30;1.00;;;;;;2256325;61;974;-88
2023/01/27 16:40:56;1078192.00;3.59;1871.47;101185.00;0.34;175.62;;;;;2.10;1.00;;;;;;2256322;61;1494;-87
2023/01/27 16:43:30;1122946.00;3.74;1951.51;93896.00;0.31;163.03;;;;;1.90;1.00;;;;;;2272880;40;3744;-88
2023/01/27 16:48:38;1477780.00;4.93;2601.38;102975.00;0.34;178.71;;;;;2.30;1.00;;;;;;2261948;61;1196;-88
2023/01/27 16:51:15;1310672.00;4.37;2291.65;103402.00;0.34;179.44;;;;;2.30;1.00;;;;;;2264106;40;3757;-87
2023/01/27 16:53:48;1502309.00;5.01;2647.47;165122.00;0.55;285.86;;;;;2.50;1.00;;;;;;2260200;61;1555;-87
2023/01/27 16:56:21;1400162.00;4.67;2456.62;15142.00;0.05;26.86;;;;;2.00;1.00;;;;;;2260256;61;1986;-86
2023/01/27 16:58:49;1416760.00;4.72;2487.44;123837.00;0.41;214.70;;;;;1.70;1.00;;;;;;2260341;61;1613;-87
2023/01/27 17:01:23;1086088.00;3.62;1885.56;88436.00;0.29;153.61;;;;;1.50;1.00;;;;;;2260281;61;1044;-87
2023/01/27 17:03:56;1381280.00;4.60;2421.65;122644.00;0.41;212.64;;;;;1.70;1.00;;;;;;2260276;61;1562;-87
2023/01/27 17:06:25;124625456.00;415.42;78418864.00;80629.00;0.27;140.12;;;;;1.70;1.00;;;;;;2260334;61;1644;-87
2023/01/27 17:08:52;1565715.00;5.22;2767.39;126716.00;0.42;219.67;;;;;1.70;1.00;;;;;;2260262;61;1623;-89
2023/01/27 17:11:25;1472263.00;4.91;2591.04;106970.00;0.36;185.60;;;;;2.00;1.00;;;;;;2260056;61;1631;-88